sensor_id;sensor_type;location;lat;lon;timestamp;pressure;altitude;pressure_sealevel;temperature;humidity
72640;BME280;60683;51.730;8.762;2024-03-06T00:01:19;100547.16;;;5.96;100.00
72640;BME280;60683;51.730;8.762;2024-03-06T00:04:04;100551.88;;;5.94;100.00
72640;BME280;60683;51.730;8.762;2024-03-06T00:06:50;100557.66;;;5.98;100.00
72640;BME280;60683;51.730;8.762;2024-03-06T00:09:36;100560.31;;;5.98;100.00
72640;BME280;60683;51.730;8.762;2024-03-06T00:12:21;100560.88;;;5.93;100.00
72640;BME280;60683;51.730;8.762;2024-03-06T00:15:09;100559.88;;;5.94;100.00
72640;BME280;60683;51.730;8.762;2024-03-06T00:17:54;100568.91;;;5.93;100.00
72640;BME280;60683;51.730;8.762;2024-03-06T00:20:39;100567.16;;;5.86;100.00
72640;BME280;60683;51.730;8.762;2024-03-06T00:23:26;100569.91;;;5.92;100.00
72640;BME280;60683;51.730;8.762;2024-03-06T00:26:11;100567.69;;;5.96;100.00
72640;BME280;60683;51.730;8.762;2024-03-06T00:28:57;100569.09;;;5.92;100.00
72640;BME280;60683;51.730;8.762;2024-03-06T00:31:44;100572.41;;;5.94;100.00
72640;BME280;60683;51.730;8.762;2024-03-06T00:34:29;100578.75;;;5.93;100.00
72640;BME280;60683;51.730;8.762;2024-03-06T00:37:15;100576.91;;;5.93;100.00
72640;BME280;60683;51.730;8.762;2024-03-06T00:40:00;100583.25;;;5.92;100.00
72640;BME280;60683;51.730;8.762;2024-03-06T00:42:46;100581.78;;;5.90;100.00
72640;BME280;60683;51.730;8.762;2024-03-06T00:45:31;100583.16;;;5.86;100.00
72640;BME280;60683;51.730;8.762;2024-03-06T00:48:18;100579.47;;;5.87;100.00
72640;BME280;60683;51.730;8.762;2024-03-06T00:51:04;100584.53;;;5.96;100.00
72640;BME280;60683;51.730;8.762;2024-03-06T00:53:50;100586.75;;;5.93;100.00
72640;BME280;60683;51.730;8.762;2024-03-06T00:56:37;100590.06;;;5.95;100.00
72640;BME280;60683;51.730;8.762;2024-03-06T00:59:23;100597.22;;;5.94;100.00
72640;BME280;60683;51.730;8.762;2024-03-06T01:02:08;100588.41;;;5.94;100.00
72640;BME280;60683;51.730;8.762;2024-03-06T01:04:55;100596.41;;;5.94;100.00
72640;BME280;60683;51.730;8.762;2024-03-06T01:07:40;100594.94;;;5.91;100.00
72640;BME280;60683;51.730;8.762;2024-03-06T01:10:27;100594.56;;;5.94;100.00
72640;BME280;60683;51.730;8.762;2024-03-06T01:13:12;100596.41;;;5.94;100.00
72640;BME280;60683;51.730;8.762;2024-03-06T01:15:57;100592.97;;;6.00;100.00
72640;BME280;60683;51.730;8.762;2024-03-06T01:18:42;100607.16;;;6.01;100.00
72640;BME280;60683;51.730;8.762;2024-03-06T01:21:29;100599.31;;;5.99;100.00
72640;BME280;60683;51.730;8.762;2024-03-06T01:24:15;100600.34;;;5.98;100.00
72640;BME280;60683;51.730;8.762;2024-03-06T01:27:00;100605.88;;;5.96;100.00
72640;BME280;60683;51.730;8.762;2024-03-06T01:29:46;100605.50;;;6.00;100.00
72640;BME280;60683;51.730;8.762;2024-03-06T01:32:31;100612.03;;;5.97;100.00
72640;BME280;60683;51.730;8.762;2024-03-06T01:35:17;100602.00;;;5.99;100.00
72640;BME280;60683;51.730;8.762;2024-03-06T01:38:04;100611.66;;;6.00;100.00
72640;BME280;60683;51.730;8.762;2024-03-06T01:40:49;100609.88;;;6.07;100.00
72640;BME280;60683;51.730;8.762;2024-03-06T01:43:37;100615.22;;;6.07;100.00
72640;BME280;60683;51.730;8.762;2024-03-06T01:46:23;100618.66;;;6.01;100.00
72640;BME280;60683;51.730;8.762;2024-03-06T01:49:09;100620.75;;;6.06;100.00
72640;BME280;60683;51.730;8.762;2024-03-06T01:51:56;100621.38;;;6.08;100.00
72640;BME280;60683;51.730;8.762;2024-03-06T01:54:44;100621.56;;;6.06;100.00
72640;BME280;60683;51.730;8.762;2024-03-06T01:57:31;100630.22;;;6.08;100.00
72640;BME280;60683;51.730;8.762;2024-03-06T02:00:17;100625.63;;;6.02;100.00
72640;BME280;60683;51.730;8.762;2024-03-06T02:03:02;100625.00;;;6.00;100.00
72640;BME280;60683;51.730;8.762;2024-03-06T02:05:49;100624.19;;;6.00;100.00
72640;BME280;60683;51.730;8.762;2024-03-06T02:08:35;100630.97;;;6.02;100.00
72640;BME280;60683;51.730;8.762;2024-03-06T02:11:22;100631.59;;;6.04;100.00
72640;BME280;60683;51.730;8.762;2024-03-06T02:14:08;100630.41;;;6.07;100.00
72640;BME280;60683;51.730;8.762;2024-03-06T02:16:54;100634.28;;;6.04;100.00
72640;BME280;60683;51.730;8.762;2024-03-06T02:19:40;100637.97;;;6.03;100.00
72640;BME280;60683;51.730;8.762;2024-03-06T02:22:26;100634.22;;;5.97;100.00
72640;BME280;60683;51.730;8.762;2024-03-06T02:25:12;100634.09;;;6.06;100.00
72640;BME280;60683;51.730;8.762;2024-03-06T02:27:59;100632.81;;;6.02;100.00
72640;BME280;60683;51.730;8.762;2024-03-06T02:30:44;100629.97;;;6.03;100.00
72640;BME280;60683;51.730;8.762;2024-03-06T02:33:32;100638.78;;;6.04;100.00
72640;BME280;60683;51.730;8.762;2024-03-06T02:36:18;100642.91;;;6.06;100.00
72640;BME280;60683;51.730;8.762;2024-03-06T02:39:05;100646.03;;;6.10;100.00
72640;BME280;60683;51.730;8.762;2024-03-06T02:41:52;100639.22;;;6.07;100.00
72640;BME280;60683;51.730;8.762;2024-03-06T02:44:37;100647.09;;;6.15;100.00
72640;BME280;60683;51.730;8.762;2024-03-06T02:47:22;100643.38;;;6.10;100.00
72640;BME280;60683;51.730;8.762;2024-03-06T02:50:09;100647.63;;;6.04;100.00
72640;BME280;60683;51.730;8.762;2024-03-06T02:52:54;100650.28;;;6.04;100.00
72640;BME280;60683;51.730;8.762;2024-03-06T02:55:41;100648.00;;;6.01;100.00
72640;BME280;60683;51.730;8.762;2024-03-06T02:58:26;100655.00;;;6.02;100.00
72640;BME280;60683;51.730;8.762;2024-03-06T03:01:15;100651.69;;;6.00;100.00
72640;BME280;60683;51.730;8.762;2024-03-06T03:04:01;100653.78;;;6.05;100.00
72640;BME280;60683;51.730;8.762;2024-03-06T03:06:46;100656.13;;;6.14;100.00
72640;BME280;60683;51.730;8.762;2024-03-06T03:09:32;100656.91;;;6.08;100.00
72640;BME280;60683;51.730;8.762;2024-03-06T03:12:21;100649.53;;;6.10;100.00
72640;BME280;60683;51.730;8.762;2024-03-06T03:15:07;100660.31;;;6.02;100.00
72640;BME280;60683;51.730;8.762;2024-03-06T03:17:52;100651.75;;;6.07;100.00
72640;BME280;60683;51.730;8.762;2024-03-06T03:20:38;100655.25;;;6.07;100.00
72640;BME280;60683;51.730;8.762;2024-03-06T03:23:23;100653.97;;;6.03;100.00
72640;BME280;60683;51.730;8.762;2024-03-06T03:26:09;100659.94;;;6.05;100.00
72640;BME280;60683;51.730;8.762;2024-03-06T03:28:56;100660.06;;;5.97;100.00
72640;BME280;60683;51.730;8.762;2024-03-06T03:31:41;100657.66;;;6.02;100.00
72640;BME280;60683;51.730;8.762;2024-03-06T03:34:27;100663.88;;;6.09;100.00
72640;BME280;60683;51.730;8.762;2024-03-06T03:37:13;100662.75;;;5.97;100.00
72640;BME280;60683;51.730;8.762;2024-03-06T03:39:59;100677.47;;;5.93;100.00
72640;BME280;60683;51.730;8.762;2024-03-06T03:42:44;100673.59;;;5.95;100.00
72640;BME280;60683;51.730;8.762;2024-03-06T03:45:30;100673.78;;;5.94;100.00
72640;BME280;60683;51.730;8.762;2024-03-06T03:48:16;100678.13;;;5.95;100.00
72640;BME280;60683;51.730;8.762;2024-03-06T03:51:02;100675.19;;;5.90;100.00
72640;BME280;60683;51.730;8.762;2024-03-06T03:53:48;100675.34;;;5.88;100.00
72640;BME280;60683;51.730;8.762;2024-03-06T03:56:35;100674.72;;;5.86;100.00
72640;BME280;60683;51.730;8.762;2024-03-06T03:59:20;100686.22;;;5.87;100.00
72640;BME280;60683;51.730;8.762;2024-03-06T04:02:07;100681.63;;;5.81;100.00
72640;BME280;60683;51.730;8.762;2024-03-06T04:04:53;100691.47;;;5.80;100.00
72640;BME280;60683;51.730;8.762;2024-03-06T04:07:38;100692.28;;;5.81;100.00
72640;BME280;60683;51.730;8.762;2024-03-06T04:10:24;100691.91;;;5.84;100.00
72640;BME280;60683;51.730;8.762;2024-03-06T04:13:09;100695.03;;;5.87;100.00
72640;BME280;60683;51.730;8.762;2024-03-06T04:15:54;100695.53;;;5.91;100.00
72640;BME280;60683;51.730;8.762;2024-03-06T04:18:41;100697.19;;;5.92;100.00
72640;BME280;60683;51.730;8.762;2024-03-06T04:21:27;100696.78;;;5.95;100.00
72640;BME280;60683;51.730;8.762;2024-03-06T04:24:12;100695.22;;;5.86;100.00
72640;BME280;60683;51.730;8.762;2024-03-06T04:26:58;100700.38;;;5.87;100.00
72640;BME280;60683;51.730;8.762;2024-03-06T04:29:43;100696.88;;;5.87;100.00
72640;BME280;60683;51.730;8.762;2024-03-06T04:32:29;100697.56;;;5.89;100.00
72640;BME280;60683;51.730;8.762;2024-03-06T04:35:15;100710.91;;;5.89;100.00
72640;BME280;60683;51.730;8.762;2024-03-06T04:38:01;100711.53;;;5.91;100.00
72640;BME280;60683;51.730;8.762;2024-03-06T04:40:48;100712.16;;;5.93;100.00
72640;BME280;60683;51.730;8.762;2024-03-06T04:43:33;100716.22;;;5.89;100.00
72640;BME280;60683;51.730;8.762;2024-03-06T04:46:19;100723.22;;;5.90;100.00
72640;BME280;60683;51.730;8.762;2024-03-06T04:49:04;100719.53;;;5.91;100.00
72640;BME280;60683;51.730;8.762;2024-03-06T04:51:50;100724.69;;;5.92;100.00
72640;BME280;60683;51.730;8.762;2024-03-06T04:54:36;100727.16;;;5.94;100.00
72640;BME280;60683;51.730;8.762;2024-03-06T04:57:21;100728.81;;;5.95;100.00
72640;BME280;60683;51.730;8.762;2024-03-06T05:00:07;100726.53;;;5.92;100.00
72640;BME280;60683;51.730;8.762;2024-03-06T05:02:53;100732.69;;;5.92;100.00
72640;BME280;60683;51.730;8.762;2024-03-06T05:05:39;100736.72;;;5.88;100.00
72640;BME280;60683;51.730;8.762;2024-03-06T05:08:26;100742.44;;;5.85;100.00
72640;BME280;60683;51.730;8.762;2024-03-06T05:11:11;100743.91;;;5.88;100.00
72640;BME280;60683;51.730;8.762;2024-03-06T05:13:58;100741.22;;;5.88;100.00
72640;BME280;60683;51.730;8.762;2024-03-06T05:16:42;100751.19;;;5.94;100.00
72640;BME280;60683;51.730;8.762;2024-03-06T05:19:28;100751.19;;;5.94;100.00
72640;BME280;60683;51.730;8.762;2024-03-06T05:22:16;100750.34;;;5.93;100.00
72640;BME280;60683;51.730;8.762;2024-03-06T05:25:03;100753.66;;;5.95;100.00
72640;BME280;60683;51.730;8.762;2024-03-06T05:27:49;100766.00;;;5.96;100.00
72640;BME280;60683;51.730;8.762;2024-03-06T05:30:35;100769.69;;;5.95;100.00
72640;BME280;60683;51.730;8.762;2024-03-06T05:33:21;100764.53;;;5.94;100.00
72640;BME280;60683;51.730;8.762;2024-03-06T05:36:06;100773.81;;;5.98;100.00
72640;BME280;60683;51.730;8.762;2024-03-06T05:38:51;100768.84;;;5.95;100.00
72640;BME280;60683;51.730;8.762;2024-03-06T05:41:38;100779.53;;;5.95;100.00
72640;BME280;60683;51.730;8.762;2024-03-06T05:44:23;100782.47;;;6.00;100.00
72640;BME280;60683;51.730;8.762;2024-03-06T05:47:09;100777.13;;;6.00;100.00
72640;BME280;60683;51.730;8.762;2024-03-06T05:49:54;100789.81;;;5.98;100.00
72640;BME280;60683;51.730;8.762;2024-03-06T05:52:40;100787.72;;;5.93;100.00
72640;BME280;60683;51.730;8.762;2024-03-06T05:55:25;100791.41;;;5.92;100.00
72640;BME280;60683;51.730;8.762;2024-03-06T05:58:12;100795.53;;;5.95;100.00
72640;BME280;60683;51.730;8.762;2024-03-06T06:00:57;100797.19;;;5.96;100.00
72640;BME280;60683;51.730;8.762;2024-03-06T06:03:43;100805.56;;;5.93;100.00
72640;BME280;60683;51.730;8.762;2024-03-06T06:06:28;100800.03;;;5.94;100.00
72640;BME280;60683;51.730;8.762;2024-03-06T06:09:14;100801.88;;;5.94;100.00
72640;BME280;60683;51.730;8.762;2024-03-06T06:12:01;100810.91;;;5.93;100.00
72640;BME280;60683;51.730;8.762;2024-03-06T06:14:48;100810.25;;;5.91;100.00
72640;BME280;60683;51.730;8.762;2024-03-06T06:17:33;100808.59;;;5.90;100.00
72640;BME280;60683;51.730;8.762;2024-03-06T06:20:19;100820.56;;;5.94;100.00
72640;BME280;60683;51.730;8.762;2024-03-06T06:23:04;100830.03;;;5.96;100.00
72640;BME280;60683;51.730;8.762;2024-03-06T06:25:50;100834.75;;;5.94;100.00
72640;BME280;60683;51.730;8.762;2024-03-06T06:28:35;100845.22;;;5.96;100.00
72640;BME280;60683;51.730;8.762;2024-03-06T06:31:22;100839.53;;;5.99;100.00
72640;BME280;60683;51.730;8.762;2024-03-06T06:34:09;100841.81;;;6.02;100.00
72640;BME280;60683;51.730;8.762;2024-03-06T06:36:55;100849.81;;;6.02;100.00
72640;BME280;60683;51.730;8.762;2024-03-06T06:39:40;100840.63;;;6.05;100.00
72640;BME280;60683;51.730;8.762;2024-03-06T06:42:25;100841.25;;;6.07;100.00
72640;BME280;60683;51.730;8.762;2024-03-06T06:45:10;100850.56;;;6.11;100.00
72640;BME280;60683;51.730;8.762;2024-03-06T06:47:57;100845.41;;;6.09;100.00
72640;BME280;60683;51.730;8.762;2024-03-06T06:50:42;100848.53;;;6.13;100.00
72640;BME280;60683;51.730;8.762;2024-03-06T06:53:28;100859.66;;;6.16;100.00
72640;BME280;60683;51.730;8.762;2024-03-06T06:56:14;100857.16;;;6.15;100.00
72640;BME280;60683;51.730;8.762;2024-03-06T06:58:59;100866.38;;;6.12;100.00
72640;BME280;60683;51.730;8.762;2024-03-06T07:01:44;100872.63;;;6.19;100.00
72640;BME280;60683;51.730;8.762;2024-03-06T07:04:31;100880.47;;;6.21;100.00
72640;BME280;60683;51.730;8.762;2024-03-06T07:07:16;100879.63;;;6.20;100.00
72640;BME280;60683;51.730;8.762;2024-03-06T07:10:03;100882.47;;;6.19;100.00
72640;BME280;60683;51.730;8.762;2024-03-06T07:12:48;100876.13;;;6.20;100.00
72640;BME280;60683;51.730;8.762;2024-03-06T07:15:34;100881.28;;;6.21;100.00
72640;BME280;60683;51.730;8.762;2024-03-06T07:18:19;100891.00;;;6.29;100.00
72640;BME280;60683;51.730;8.762;2024-03-06T07:21:05;100900.13;;;6.35;100.00
72640;BME280;60683;51.730;8.762;2024-03-06T07:23:50;100902.13;;;6.32;100.00
72640;BME280;60683;51.730;8.762;2024-03-06T07:26:36;100898.47;;;6.34;100.00
72640;BME280;60683;51.730;8.762;2024-03-06T07:29:21;100909.31;;;6.32;100.00
72640;BME280;60683;51.730;8.762;2024-03-06T07:32:06;100914.28;;;6.35;100.00
72640;BME280;60683;51.730;8.762;2024-03-06T07:34:51;100909.97;;;6.34;100.00
72640;BME280;60683;51.730;8.762;2024-03-06T07:37:38;100917.16;;;6.34;100.00
72640;BME280;60683;51.730;8.762;2024-03-06T07:40:24;100915.13;;;6.36;100.00
72640;BME280;60683;51.730;8.762;2024-03-06T07:43:09;100918.63;;;6.36;100.00
72640;BME280;60683;51.730;8.762;2024-03-06T07:45:55;100926.25;;;6.39;100.00
72640;BME280;60683;51.730;8.762;2024-03-06T07:48:42;100928.94;;;6.39;100.00
72640;BME280;60683;51.730;8.762;2024-03-06T07:51:28;100927.34;;;6.45;100.00
72640;BME280;60683;51.730;8.762;2024-03-06T07:54:15;100935.44;;;6.51;100.00
72640;BME280;60683;51.730;8.762;2024-03-06T07:57:01;100937.94;;;6.53;100.00
72640;BME280;60683;51.730;8.762;2024-03-06T07:59:47;100942.25;;;6.54;100.00
72640;BME280;60683;51.730;8.762;2024-03-06T08:02:33;100946.22;;;6.58;100.00
72640;BME280;60683;51.730;8.762;2024-03-06T08:05:19;100949.00;;;6.50;100.00
72640;BME280;60683;51.730;8.762;2024-03-06T08:08:06;100946.13;;;6.51;100.00
72640;BME280;60683;51.730;8.762;2024-03-06T08:10:53;100952.56;;;6.57;100.00
72640;BME280;60683;51.730;8.762;2024-03-06T08:13:38;100949.16;;;6.63;100.00
72640;BME280;60683;51.730;8.762;2024-03-06T08:16:24;100951.53;;;6.73;100.00
72640;BME280;60683;51.730;8.762;2024-03-06T08:19:09;100957.84;;;6.86;100.00
72640;BME280;60683;51.730;8.762;2024-03-06T08:21:54;100963.94;;;6.80;100.00
72640;BME280;60683;51.730;8.762;2024-03-06T08:24:39;100971.31;;;6.78;100.00
72640;BME280;60683;51.730;8.762;2024-03-06T08:27:26;100968.88;;;6.62;100.00
72640;BME280;60683;51.730;8.762;2024-03-06T08:30:11;100973.38;;;6.61;100.00
72640;BME280;60683;51.730;8.762;2024-03-06T08:32:57;100985.28;;;6.59;100.00
72640;BME280;60683;51.730;8.762;2024-03-06T08:35:42;100990.81;;;6.57;100.00
72640;BME280;60683;51.730;8.762;2024-03-06T08:38:27;100988.69;;;6.53;100.00
72640;BME280;60683;51.730;8.762;2024-03-06T08:41:12;100988.88;;;6.51;100.00
72640;BME280;60683;51.730;8.762;2024-03-06T08:43:59;100989.34;;;6.55;100.00
72640;BME280;60683;51.730;8.762;2024-03-06T08:46:45;100997.44;;;6.47;100.00
72640;BME280;60683;51.730;8.762;2024-03-06T08:49:31;100999.09;;;6.48;100.00
72640;BME280;60683;51.730;8.762;2024-03-06T08:52:17;101001.41;;;6.51;100.00
72640;BME280;60683;51.730;8.762;2024-03-06T08:55:03;101002.88;;;6.53;100.00
72640;BME280;60683;51.730;8.762;2024-03-06T08:57:49;101003.53;;;6.55;100.00
72640;BME280;60683;51.730;8.762;2024-03-06T09:00:39;101005.63;;;6.60;100.00
72640;BME280;60683;51.730;8.762;2024-03-06T09:03:24;101005.25;;;6.63;100.00
72640;BME280;60683;51.730;8.762;2024-03-06T09:06:10;101007.19;;;6.69;100.00
72640;BME280;60683;51.730;8.762;2024-03-06T09:08:56;101010.56;;;6.78;100.00
72640;BME280;60683;51.730;8.762;2024-03-06T09:11:42;101011.09;;;6.88;100.00
72640;BME280;60683;51.730;8.762;2024-03-06T09:14:27;101016.91;;;6.91;100.00
72640;BME280;60683;51.730;8.762;2024-03-06T09:17:14;101011.25;;;7.01;100.00
72640;BME280;60683;51.730;8.762;2024-03-06T09:20:00;101019.44;;;7.14;100.00
72640;BME280;60683;51.730;8.762;2024-03-06T09:42:08;101022.56;;;7.88;100.00
72640;BME280;60683;51.730;8.762;2024-03-06T09:44:53;101030.00;;;7.93;100.00
72640;BME280;60683;51.730;8.762;2024-03-06T09:47:39;101032.47;;;8.16;100.00
72640;BME280;60683;51.730;8.762;2024-03-06T09:50:25;101029.31;;;8.40;100.00
72640;BME280;60683;51.730;8.762;2024-03-06T09:58:30;101028.56;;;8.53;100.00
72640;BME280;60683;51.730;8.762;2024-03-06T10:01:16;101030.22;;;8.54;100.00
72640;BME280;60683;51.730;8.762;2024-03-06T10:04:17;101037.31;;;8.68;100.00
72640;BME280;60683;51.730;8.762;2024-03-06T10:07:02;101037.75;;;8.72;100.00
72640;BME280;60683;51.730;8.762;2024-03-06T10:09:47;101036.56;;;8.81;100.00
72640;BME280;60683;51.730;8.762;2024-03-06T10:12:33;101037.78;;;8.85;100.00
72640;BME280;60683;51.730;8.762;2024-03-06T10:15:20;101038.19;;;8.75;100.00
72640;BME280;60683;51.730;8.762;2024-03-06T10:18:10;101042.47;;;8.70;100.00
72640;BME280;60683;51.730;8.762;2024-03-06T10:20:56;101039.28;;;8.94;100.00
72640;BME280;60683;51.730;8.762;2024-03-06T10:26:17;101050.69;;;9.09;100.00
72640;BME280;60683;51.730;8.762;2024-03-06T10:29:04;101041.25;;;9.26;100.00
72640;BME280;60683;51.730;8.762;2024-03-06T10:31:51;101046.22;;;9.49;100.00
72640;BME280;60683;51.730;8.762;2024-03-06T10:34:39;101048.94;;;9.56;100.00
72640;BME280;60683;51.730;8.762;2024-03-06T10:37:25;101056.16;;;9.55;100.00
72640;BME280;60683;51.730;8.762;2024-03-06T10:40:14;101058.41;;;9.45;100.00
72640;BME280;60683;51.730;8.762;2024-03-06T10:43:02;101055.72;;;9.45;100.00
72640;BME280;60683;51.730;8.762;2024-03-06T10:45:51;101054.91;;;9.58;100.00
72640;BME280;60683;51.730;8.762;2024-03-06T10:48:43;101051.63;;;9.76;100.00
72640;BME280;60683;51.730;8.762;2024-03-06T10:51:29;101046.66;;;9.99;100.00
72640;BME280;60683;51.730;8.762;2024-03-06T10:54:16;101047.50;;;9.80;100.00
72640;BME280;60683;51.730;8.762;2024-03-06T10:57:02;101053.69;;;9.93;100.00
72640;BME280;60683;51.730;8.762;2024-03-06T10:59:47;101051.00;;;9.60;100.00
72640;BME280;60683;51.730;8.762;2024-03-06T11:02:33;101055.31;;;9.55;100.00
72640;BME280;60683;51.730;8.762;2024-03-06T11:05:22;101063.84;;;9.85;100.00
72640;BME280;60683;51.730;8.762;2024-03-06T11:08:08;101055.97;;;9.90;100.00
72640;BME280;60683;51.730;8.762;2024-03-06T11:11:22;101062.78;;;10.06;100.00
72640;BME280;60683;51.730;8.762;2024-03-06T11:14:08;101058.25;;;10.00;100.00
72640;BME280;60683;51.730;8.762;2024-03-06T11:17:00;101065.88;;;9.89;100.00
72640;BME280;60683;51.730;8.762;2024-03-06T11:20:08;101066.47;;;9.58;100.00
72640;BME280;60683;51.730;8.762;2024-03-06T11:23:04;101070.78;;;9.40;100.00
72640;BME280;60683;51.730;8.762;2024-03-06T11:26:05;101079.25;;;9.50;100.00
72640;BME280;60683;51.730;8.762;2024-03-06T11:29:08;101074.31;;;9.47;100.00
72640;BME280;60683;51.730;8.762;2024-03-06T11:32:05;101075.53;;;9.31;100.00
72640;BME280;60683;51.730;8.762;2024-03-06T11:34:52;101079.63;;;9.27;100.00
72640;BME280;60683;51.730;8.762;2024-03-06T11:37:45;101074.34;;;9.73;100.00
72640;BME280;60683;51.730;8.762;2024-03-06T11:40:31;101073.13;;;9.76;98.68
72640;BME280;60683;51.730;8.762;2024-03-06T11:43:23;101080.09;;;9.57;99.13
72640;BME280;60683;51.730;8.762;2024-03-06T11:46:12;101079.25;;;9.43;100.00
72640;BME280;60683;51.730;8.762;2024-03-06T11:48:57;101077.81;;;9.54;100.00
72640;BME280;60683;51.730;8.762;2024-03-06T11:51:44;101078.41;;;9.36;100.00
72640;BME280;60683;51.730;8.762;2024-03-06T11:54:31;101081.97;;;9.56;100.00
72640;BME280;60683;51.730;8.762;2024-03-06T11:57:16;101078.66;;;9.54;100.00
72640;BME280;60683;51.730;8.762;2024-03-06T12:00:07;101081.91;;;9.23;100.00
72640;BME280;60683;51.730;8.762;2024-03-06T12:02:54;101075.91;;;9.21;100.00
72640;BME280;60683;51.730;8.762;2024-03-06T12:05:39;101089.78;;;9.45;100.00
72640;BME280;60683;51.730;8.762;2024-03-06T12:08:25;101087.28;;;9.37;100.00
72640;BME280;60683;51.730;8.762;2024-03-06T12:11:10;101089.16;;;9.49;100.00
72640;BME280;60683;51.730;8.762;2024-03-06T12:13:56;101086.25;;;9.31;100.00
72640;BME280;60683;51.730;8.762;2024-03-06T12:16:43;101089.34;;;9.28;100.00
72640;BME280;60683;51.730;8.762;2024-03-06T12:19:31;101090.66;;;8.98;100.00
72640;BME280;60683;51.730;8.762;2024-03-06T12:22:17;101088.59;;;9.00;100.00
72640;BME280;60683;51.730;8.762;2024-03-06T12:25:04;101097.91;;;9.04;100.00
72640;BME280;60683;51.730;8.762;2024-03-06T12:27:51;101087.75;;;8.92;100.00
72640;BME280;60683;51.730;8.762;2024-03-06T12:30:41;101099.31;;;9.00;100.00
72640;BME280;60683;51.730;8.762;2024-03-06T12:33:27;101100.13;;;8.93;100.00
72640;BME280;60683;51.730;8.762;2024-03-06T12:36:14;101091.06;;;8.94;100.00
72640;BME280;60683;51.730;8.762;2024-03-06T12:39:00;101093.53;;;8.96;100.00
72640;BME280;60683;51.730;8.762;2024-03-06T12:41:46;101102.00;;;9.00;100.00
72640;BME280;60683;51.730;8.762;2024-03-06T12:44:33;101097.59;;;8.85;100.00
72640;BME280;60683;51.730;8.762;2024-03-06T12:47:18;101088.16;;;8.96;100.00
72640;BME280;60683;51.730;8.762;2024-03-06T12:50:05;101090.41;;;8.92;100.00
72640;BME280;60683;51.730;8.762;2024-03-06T12:52:53;101093.69;;;8.88;100.00
72640;BME280;60683;51.730;8.762;2024-03-06T12:55:38;101090.63;;;8.91;100.00
72640;BME280;60683;51.730;8.762;2024-03-06T12:58:24;101093.75;;;9.01;100.00
72640;BME280;60683;51.730;8.762;2024-03-06T13:01:09;101090.22;;;8.94;100.00
72640;BME280;60683;51.730;8.762;2024-03-06T13:03:55;101093.72;;;8.94;100.00
72640;BME280;60683;51.730;8.762;2024-03-06T13:06:40;101089.00;;;8.96;100.00
72640;BME280;60683;51.730;8.762;2024-03-06T13:09:27;101092.72;;;8.95;100.00
72640;BME280;60683;51.730;8.762;2024-03-06T13:12:13;101087.31;;;8.89;100.00
72640;BME280;60683;51.730;8.762;2024-03-06T13:14:59;101093.50;;;8.89;100.00
72640;BME280;60683;51.730;8.762;2024-03-06T13:17:44;101101.38;;;8.98;100.00
72640;BME280;60683;51.730;8.762;2024-03-06T13:20:30;101092.06;;;8.93;100.00
72640;BME280;60683;51.730;8.762;2024-03-06T13:23:16;101095.00;;;8.99;100.00
72640;BME280;60683;51.730;8.762;2024-03-06T13:26:03;101096.69;;;9.06;100.00
72640;BME280;60683;51.730;8.762;2024-03-06T13:28:49;101105.84;;;8.84;100.00
72640;BME280;60683;51.730;8.762;2024-03-06T13:31:35;101100.94;;;8.94;100.00
72640;BME280;60683;51.730;8.762;2024-03-06T13:34:20;101107.97;;;8.95;100.00
72640;BME280;60683;51.730;8.762;2024-03-06T13:37:06;101108.00;;;9.02;100.00
72640;BME280;60683;51.730;8.762;2024-03-06T13:39:54;101098.72;;;9.04;100.00
72640;BME280;60683;51.730;8.762;2024-03-06T13:42:45;101103.31;;;9.17;100.00
72640;BME280;60683;51.730;8.762;2024-03-06T13:45:31;101104.13;;;9.11;100.00
72640;BME280;60683;51.730;8.762;2024-03-06T13:48:17;101101.28;;;9.19;100.00
72640;BME280;60683;51.730;8.762;2024-03-06T13:51:03;101105.63;;;9.26;100.00
72640;BME280;60683;51.730;8.762;2024-03-06T13:53:48;101102.34;;;9.38;100.00
72640;BME280;60683;51.730;8.762;2024-03-06T13:56:33;101106.31;;;9.48;100.00
72640;BME280;60683;51.730;8.762;2024-03-06T13:59:20;101102.75;;;9.28;100.00
72640;BME280;60683;51.730;8.762;2024-03-06T14:02:06;101109.56;;;9.24;100.00
72640;BME280;60683;51.730;8.762;2024-03-06T14:04:52;101106.41;;;9.14;100.00
72640;BME280;60683;51.730;8.762;2024-03-06T14:07:38;101103.72;;;9.14;100.00
72640;BME280;60683;51.730;8.762;2024-03-06T14:10:24;101109.47;;;9.04;100.00
72640;BME280;60683;51.730;8.762;2024-03-06T14:13:11;101105.38;;;9.15;100.00
72640;BME280;60683;51.730;8.762;2024-03-06T14:15:57;101113.81;;;9.12;100.00
72640;BME280;60683;51.730;8.762;2024-03-06T14:18:44;101119.63;;;9.15;100.00
72640;BME280;60683;51.730;8.762;2024-03-06T14:21:30;101118.78;;;9.15;100.00
72640;BME280;60683;51.730;8.762;2024-03-06T14:24:16;101112.19;;;9.11;100.00
72640;BME280;60683;51.730;8.762;2024-03-06T14:27:02;101118.78;;;9.15;100.00
72640;BME280;60683;51.730;8.762;2024-03-06T14:29:49;101118.63;;;9.23;100.00
72640;BME280;60683;51.730;8.762;2024-03-06T14:32:35;101116.16;;;9.28;100.00
72640;BME280;60683;51.730;8.762;2024-03-06T14:35:21;101118.06;;;9.34;100.00
72640;BME280;60683;51.730;8.762;2024-03-06T14:38:07;101112.47;;;9.36;100.00
72640;BME280;60683;51.730;8.762;2024-03-06T14:40:53;101121.94;;;9.25;99.20
72640;BME280;60683;51.730;8.762;2024-03-06T14:43:37;101116.75;;;9.17;98.99
72640;BME280;60683;51.730;8.762;2024-03-06T14:46:23;101120.03;;;9.12;98.89
72640;BME280;60683;51.730;8.762;2024-03-06T14:49:09;101122.66;;;9.06;99.41
72640;BME280;60683;51.730;8.762;2024-03-06T14:51:55;101118.56;;;9.10;99.93
72640;BME280;60683;51.730;8.762;2024-03-06T14:54:40;101119.59;;;9.09;100.00
72640;BME280;60683;51.730;8.762;2024-03-06T14:57:27;101115.84;;;9.03;100.00